Terminal Aerodrome Forecast
Issued by NWS Twin Cities, MN

Home | Current Version | Previous Version | Graphics & Text | Print | Product List | Glossary On
Versions: 1 2 3 4 5 6 7 8 9 10 11 12 13 14 15 16 17 18
000
FTUS43 KMPX 030520
TAFSTC
TAF
KSTC 030520Z 0306/0406 17007KT P6SM VCSH SCT060 BKN120
     FM031000 18006KT P6SM SCT050 BKN090
     FM031700 28008KT P6SM VCSH BKN050 OVC080
     FM032000 33012G18KT P6SM BKN060
     FM040100 34006KT P6SM SCT060=

USA.gov is the U.S. government's official web portal to all federal, state and local government web resources and services.